Time,TemperatureF,DewpointF,PressureIn,WindDirection,WindDirectionDegrees,WindSpeedMPH,WindSpeedGustMPH,Humidity,HourlyPrecipIn,Conditions,Clouds,dailyrainin,SoftwareType,DateUTC
2013-03-02 00:01:00,22.0,16.0,30.41,NNW,332,1.0,7.0,77,0.00,,,0.00,,2013-03-02 06:01:00,
2013-03-02 00:11:00,22.0,16.0,30.41,NNW,332,1.0,7.0,77,0.00,,,0.00,,2013-03-02 06:11:00,
2013-03-02 00:21:00,22.0,16.0,30.40,North,5,3.0,6.0,78,0.00,,,0.00,,2013-03-02 06:21:00,
2013-03-02 00:31:00,22.0,16.0,30.41,North,355,2.0,5.0,77,0.00,,,0.00,,2013-03-02 06:31:00,
2013-03-02 00:42:00,22.0,16.0,30.41,North,355,2.0,5.0,77,0.00,,,0.00,,2013-03-02 06:42:00,
2013-03-02 00:52:00,22.0,16.0,30.40,North,9,2.0,8.0,78,0.00,,,0.00,,2013-03-02 06:52:00,
2013-03-02 01:01:00,21.0,15.0,30.40,North,9,2.0,5.0,78,0.00,,,0.00,,2013-03-02 07:01:00,
2013-03-02 01:11:00,21.0,15.0,30.40,North,9,2.0,5.0,78,0.00,,,0.00,,2013-03-02 07:11:00,
2013-03-02 01:21:00,21.0,15.0,30.40,NNE,20,3.0,7.0,78,0.00,,,0.00,,2013-03-02 07:21:00,
2013-03-02 01:32:00,21.0,15.0,30.40,NNW,338,2.0,5.0,78,0.00,,,0.00,,2013-03-02 07:32:00,
2013-03-02 01:42:00,21.0,15.0,30.40,NNW,338,2.0,5.0,78,0.00,,,0.00,,2013-03-02 07:42:00,
2013-03-02 01:52:00,21.0,16.0,30.40,NNW,340,0.0,5.0,79,0.00,,,0.00,,2013-03-02 07:52:00,
2013-03-02 02:01:00,21.0,16.0,30.40,North,5,2.0,5.0,79,0.00,,,0.00,,2013-03-02 08:01:00,
2013-03-02 02:11:00,21.0,16.0,30.40,North,5,2.0,5.0,79,0.00,,,0.00,,2013-03-02 08:11:00,
2013-03-02 02:22:00,21.0,16.0,30.40,NNW,347,3.0,5.0,79,0.00,,,0.00,,2013-03-02 08:22:00,
2013-03-02 02:32:00,21.0,16.0,30.40,NNW,344,0.0,3.0,79,0.00,,,0.00,,2013-03-02 08:32:00,
2013-03-02 02:42:00,21.0,16.0,30.40,NNW,344,0.0,3.0,79,0.00,,,0.00,,2013-03-02 08:42:00,
2013-03-02 02:52:00,21.0,16.0,30.40,NNW,344,2.0,5.0,80,0.00,,,0.00,,2013-03-02 08:52:00,
2013-03-02 03:01:00,21.0,16.0,30.40,NNE,26,2.0,4.0,80,0.00,,,0.00,,2013-03-02 09:01:00,
2013-03-02 03:11:00,21.0,16.0,30.40,NNE,26,0.0,1.0,80,0.00,,,0.00,,2013-03-02 09:11:00,
2013-03-02 03:21:00,21.0,16.0,30.40,NNE,26,0.0,1.0,80,0.00,,,0.00,,2013-03-02 09:21:00,
2013-03-02 03:32:00,21.0,16.0,30.40,NNE,24,1.0,3.0,81,0.00,,,0.00,,2013-03-02 09:32:00,
2013-03-02 03:42:00,21.0,16.0,30.40,NNE,24,1.0,3.0,81,0.00,,,0.00,,2013-03-02 09:42:00,
2013-03-02 03:52:00,21.0,16.0,30.40,NW,313,4.0,6.0,81,0.00,,,0.00,,2013-03-02 09:52:00,
2013-03-02 04:01:00,20.0,15.0,30.39,NW,310,1.0,5.0,82,0.00,,,0.00,,2013-03-02 10:01:00,
2013-03-02 04:15:00,20.0,15.0,30.39,NW,310,1.0,5.0,82,0.00,,,0.00,,2013-03-02 10:15:00,
2013-03-02 04:22:00,20.0,15.0,30.39,NNW,333,1.0,3.0,81,0.00,,,0.00,,2013-03-02 10:22:00,
2013-03-02 04:31:00,20.0,15.0,30.39,NW,319,1.0,4.0,82,0.00,,,0.00,,2013-03-02 10:31:00,
2013-03-02 04:42:00,20.0,15.0,30.39,NW,319,1.0,4.0,82,0.00,,,0.00,,2013-03-02 10:42:00,
2013-03-02 04:52:00,20.0,15.0,30.40,NNW,347,2.0,6.0,82,0.00,,,0.00,,2013-03-02 10:52:00,
2013-03-02 05:01:00,20.0,16.0,30.40,NNW,346,1.0,4.0,83,0.00,,,0.00,,2013-03-02 11:01:00,
2013-03-02 05:11:00,20.0,16.0,30.40,NNW,346,1.0,4.0,83,0.00,,,0.00,,2013-03-02 11:11:00,
2013-03-02 05:21:00,20.0,16.0,30.39,WNW,302,2.0,6.0,83,0.00,,,0.00,,2013-03-02 11:21:00,
2013-03-02 05:32:00,19.0,15.0,30.40,NW,304,2.0,6.0,83,0.00,,,0.00,,2013-03-02 11:32:00,
2013-03-02 05:42:00,19.0,15.0,30.40,NW,304,2.0,6.0,83,0.00,,,0.00,,2013-03-02 11:42:00,
2013-03-02 05:52:00,19.0,15.0,30.40,WNW,300,2.0,5.0,83,0.00,,,0.00,,2013-03-02 11:52:00,
2013-03-02 06:02:00,19.0,15.0,30.40,WNW,297,3.0,7.0,83,0.00,,,0.00,,2013-03-02 12:02:00,
2013-03-02 06:11:00,19.0,15.0,30.40,WNW,297,3.0,7.0,83,0.00,,,0.00,,2013-03-02 12:11:00,
2013-03-02 06:21:00,19.0,15.0,30.40,WNW,299,2.0,7.0,83,0.00,,,0.00,,2013-03-02 12:21:00,
2013-03-02 06:33:00,19.0,15.0,30.40,WNW,294,1.0,4.0,83,0.00,,,0.00,,2013-03-02 12:33:00,
2013-03-02 06:43:00,19.0,15.0,30.40,WNW,294,1.0,4.0,83,0.00,,,0.00,,2013-03-02 12:43:00,
2013-03-02 06:53:00,19.0,15.0,30.39,WNW,294,0.0,4.0,83,0.00,,,0.00,,2013-03-02 12:53:00,
2013-03-02 07:01:00,19.0,15.0,30.40,WNW,294,0.0,0.0,84,0.00,,,0.00,,2013-03-02 13:01:00,
2013-03-02 07:11:00,19.0,15.0,30.40,WNW,294,0.0,0.0,84,0.00,,,0.00,,2013-03-02 13:11:00,
2013-03-02 07:22:00,18.0,14.0,30.40,WNW,294,0.0,0.0,84,0.00,,,0.00,,2013-03-02 13:22:00,
2013-03-02 07:32:00,18.0,14.0,30.40,WNW,294,0.0,3.0,84,0.00,,,0.00,,2013-03-02 13:32:00,
2013-03-02 07:42:00,18.0,14.0,30.40,WNW,294,0.0,3.0,84,0.00,,,0.00,,2013-03-02 13:42:00,
2013-03-02 07:52:00,18.0,14.0,30.40,WNW,294,0.0,2.0,84,0.00,,,0.00,,2013-03-02 13:52:00,
2013-03-02 08:01:00,18.0,14.0,30.40,WNW,294,0.0,0.0,84,0.00,,,0.00,,2013-03-02 14:01:00,
2013-03-02 08:11:00,18.0,14.0,30.40,WNW,294,0.0,0.0,84,0.00,,,0.00,,2013-03-02 14:11:00,
2013-03-02 08:21:00,18.0,14.0,30.41,WNW,294,0.0,0.0,84,0.00,,,0.00,,2013-03-02 14:21:00,
2013-03-02 08:32:00,19.0,15.0,30.40,WNW,294,0.0,0.0,85,0.00,,,0.00,,2013-03-02 14:32:00,
2013-03-02 08:42:00,19.0,15.0,30.40,WNW,294,0.0,0.0,85,0.00,,,0.00,,2013-03-02 14:42:00,
2013-03-02 08:52:00,19.0,15.0,30.40,WNW,294,1.0,3.0,83,0.00,,,0.00,,2013-03-02 14:52:00,
2013-03-02 09:02:00,19.0,15.0,30.41,West,269,0.0,4.0,83,0.00,,,0.00,,2013-03-02 15:02:00,
2013-03-02 09:11:00,19.0,15.0,30.41,West,269,0.0,4.0,83,0.00,,,0.00,,2013-03-02 15:11:00,
2013-03-02 09:21:00,20.0,16.0,30.40,West,268,1.0,4.0,83,0.00,,,0.00,,2013-03-02 15:21:00,
2013-03-02 09:32:00,21.0,16.0,30.40,WSW,257,0.0,2.0,81,0.00,,,0.00,,2013-03-02 15:32:00,
2013-03-02 09:42:00,21.0,16.0,30.40,WSW,257,0.0,2.0,81,0.00,,,0.00,,2013-03-02 15:42:00,
2013-03-02 09:52:00,22.0,16.0,30.40,SW,236,3.0,7.0,78,0.00,,,0.00,,2013-03-02 15:52:00,
2013-03-02 10:01:00,24.0,18.0,30.39,WSW,252,0.0,3.0,78,0.00,,,0.00,,2013-03-02 16:01:00,
2013-03-02 10:11:00,24.0,18.0,30.39,WSW,252,0.0,3.0,78,0.00,,,0.00,,2013-03-02 16:11:00,
2013-03-02 10:21:00,24.0,17.0,30.39,West,259,1.0,4.0,74,0.00,,,0.00,,2013-03-02 16:21:00,
2013-03-02 10:31:00,24.0,17.0,30.38,South,190,2.0,4.0,74,0.00,,,0.00,,2013-03-02 16:31:00,
2013-03-02 10:42:00,24.0,17.0,30.38,South,190,2.0,4.0,74,0.00,,,0.00,,2013-03-02 16:42:00,
2013-03-02 10:52:00,24.0,17.0,30.37,WSW,255,1.0,5.0,75,0.00,,,0.00,,2013-03-02 16:52:00,
2013-03-02 11:01:00,24.0,17.0,30.37,WSW,255,1.0,5.0,75,0.00,,,0.00,,2013-03-02 17:01:00,
2013-03-02 11:11:00,24.0,17.0,30.37,WSW,255,1.0,5.0,75,0.00,,,0.00,,2013-03-02 17:11:00,
2013-03-02 11:21:00,26.0,18.0,30.36,SSW,204,0.0,4.0,72,0.00,,,0.00,,2013-03-02 17:21:00,
2013-03-02 11:32:00,26.0,18.0,30.36,SW,230,4.0,7.0,70,0.00,,,0.00,,2013-03-02 17:32:00,
2013-03-02 11:42:00,26.0,18.0,30.36,SW,230,4.0,7.0,70,0.00,,,0.00,,2013-03-02 17:42:00,
2013-03-02 11:52:00,26.0,18.0,30.36,West,263,4.0,8.0,71,0.00,,,0.00,,2013-03-02 17:52:00,
2013-03-02 12:01:00,27.0,18.0,30.35,SW,219,2.0,7.0,69,0.00,,,0.00,,2013-03-02 18:01:00,
2013-03-02 12:11:00,27.0,18.0,30.35,SW,219,2.0,7.0,69,0.00,,,0.00,,2013-03-02 18:11:00,
2013-03-02 12:22:00,27.0,19.0,30.35,WSW,246,2.0,7.0,70,0.00,,,0.00,,2013-03-02 18:22:00,
2013-03-02 12:32:00,28.0,19.0,30.35,WSW,249,4.0,7.0,69,0.00,,,0.00,,2013-03-02 18:32:00,
2013-03-02 12:42:00,28.0,19.0,30.35,WSW,249,4.0,7.0,69,0.00,,,0.00,,2013-03-02 18:42:00,
2013-03-02 12:52:00,27.0,18.0,30.35,WSW,258,3.0,7.0,68,0.00,,,0.00,,2013-03-02 18:52:00,
2013-03-02 13:01:00,28.0,18.0,30.33,SW,232,0.0,6.0,67,0.00,,,0.00,,2013-03-02 19:01:00,
2013-03-02 13:11:00,28.0,18.0,30.33,SW,232,0.0,6.0,67,0.00,,,0.00,,2013-03-02 19:11:00,
2013-03-02 13:21:00,30.0,19.0,30.32,SSE,159,0.0,6.0,64,0.00,,,0.00,,2013-03-02 19:21:00,
2013-03-02 13:32:00,29.0,17.0,30.30,South,170,3.0,7.0,61,0.00,,,0.00,,2013-03-02 19:32:00,
2013-03-02 13:42:00,29.0,17.0,30.30,South,170,3.0,7.0,61,0.00,,,0.00,,2013-03-02 19:42:00,
2013-03-02 13:52:00,29.0,17.0,30.29,SSE,158,3.0,7.0,60,0.00,,,0.00,,2013-03-02 19:52:00,
2013-03-02 14:01:00,30.0,18.0,30.30,SSE,163,2.0,9.0,61,0.00,,,0.00,,2013-03-02 20:01:00,
2013-03-02 14:11:00,30.0,18.0,30.30,SSE,163,2.0,9.0,61,0.00,,,0.00,,2013-03-02 20:11:00,
2013-03-02 14:22:00,31.0,20.0,30.29,SSW,213,1.0,7.0,62,0.00,,,0.00,,2013-03-02 20:22:00,
2013-03-02 14:32:00,32.0,20.0,30.29,SSW,212,4.0,8.0,61,0.00,,,0.00,,2013-03-02 20:32:00,
2013-03-02 14:42:00,32.0,20.0,30.29,SSW,212,4.0,8.0,61,0.00,,,0.00,,2013-03-02 20:42:00,
2013-03-02 14:52:00,32.0,20.0,30.28,South,177,1.0,7.0,61,0.00,,,0.00,,2013-03-02 20:52:00,
2013-03-02 15:02:00,32.0,20.0,30.27,SSW,198,3.0,7.0,62,0.00,,,0.00,,2013-03-02 21:02:00,
2013-03-02 15:11:00,32.0,20.0,30.27,SSW,198,3.0,7.0,62,0.00,,,0.00,,2013-03-02 21:11:00,
2013-03-02 15:22:00,31.0,19.0,30.27,SSW,198,5.0,7.0,60,0.00,,,0.00,,2013-03-02 21:22:00,
2013-03-02 15:32:00,32.0,20.0,30.26,South,173,3.0,6.0,61,0.00,,,0.00,,2013-03-02 21:32:00,
2013-03-02 15:42:00,32.0,20.0,30.26,South,173,3.0,6.0,61,0.00,,,0.00,,2013-03-02 21:42:00,
2013-03-02 15:52:00,33.0,20.0,30.26,SSW,200,2.0,7.0,59,0.00,,,0.00,,2013-03-02 21:52:00,
2013-03-02 16:02:00,33.0,21.0,30.25,SSE,151,2.0,7.0,60,0.00,,,0.00,,2013-03-02 22:02:00,
2013-03-02 16:11:00,33.0,21.0,30.25,SSE,151,2.0,7.0,60,0.00,,,0.00,,2013-03-02 22:11:00,
2013-03-02 16:22:00,32.0,20.0,30.25,ESE,116,2.0,7.0,62,0.00,,,0.00,,2013-03-02 22:22:00,
2013-03-02 16:32:00,32.0,20.0,30.25,ESE,109,2.0,7.0,62,0.00,,,0.00,,2013-03-02 22:32:00,
2013-03-02 16:42:00,32.0,20.0,30.25,ESE,109,2.0,7.0,62,0.00,,,0.00,,2013-03-02 22:42:00,
2013-03-02 16:52:00,33.0,21.0,30.25,ESE,123,1.0,5.0,62,0.00,,,0.00,,2013-03-02 22:52:00,
2013-03-02 17:01:00,33.0,21.0,30.24,South,183,3.0,5.0,62,0.00,,,0.00,,2013-03-02 23:01:00,
2013-03-02 17:11:00,33.0,21.0,30.23,SSE,164,7.0,10.0,61,0.00,,,0.00,,2013-03-02 23:11:00,
2013-03-02 17:21:00,33.0,21.0,30.23,SSE,164,7.0,10.0,61,0.00,,,0.00,,2013-03-02 23:21:00,
2013-03-02 17:32:00,33.0,23.0,30.23,South,171,4.0,10.0,65,0.00,,,0.00,,2013-03-02 23:32:00,
2013-03-02 17:42:00,33.0,23.0,30.23,South,171,4.0,10.0,65,0.00,,,0.00,,2013-03-02 23:42:00,
2013-03-02 17:52:00,32.0,22.0,30.23,South,178,2.0,7.0,65,0.00,,,0.00,,2013-03-02 23:52:00,
2013-03-02 18:02:00,32.0,22.0,30.22,SE,139,4.0,9.0,65,0.00,,,0.00,,2013-03-03 00:02:00,
2013-03-02 18:11:00,32.0,22.0,30.22,SE,139,4.0,9.0,65,0.00,,,0.00,,2013-03-03 00:11:00,
2013-03-02 18:22:00,32.0,21.0,30.22,SE,146,4.0,8.0,64,0.00,,,0.00,,2013-03-03 00:22:00,
2013-03-02 18:32:00,32.0,22.0,30.21,ESE,118,6.0,9.0,65,0.00,,,0.00,,2013-03-03 00:32:00,
2013-03-02 18:42:00,32.0,22.0,30.21,ESE,118,6.0,9.0,65,0.00,,,0.00,,2013-03-03 00:42:00,
2013-03-02 18:52:00,31.0,21.0,30.22,SE,141,3.0,7.0,65,0.00,,,0.00,,2013-03-03 00:52:00,
2013-03-02 19:01:00,31.0,21.0,30.21,SE,146,5.0,10.0,66,0.00,,,0.00,,2013-03-03 01:01:00,
2013-03-02 19:11:00,31.0,21.0,30.21,SE,146,5.0,10.0,66,0.00,,,0.00,,2013-03-03 01:11:00,
2013-03-02 19:21:00,31.0,22.0,30.21,ESE,114,4.0,9.0,68,0.00,,,0.00,,2013-03-03 01:21:00,
2013-03-02 19:31:00,31.0,22.0,30.20,SE,126,5.0,11.0,70,0.00,,,0.00,,2013-03-03 01:31:00,
2013-03-02 19:42:00,31.0,22.0,30.20,SE,126,5.0,11.0,70,0.00,,,0.00,,2013-03-03 01:42:00,
2013-03-02 19:52:00,31.0,22.0,30.20,SE,126,5.0,11.0,70,0.00,,,0.00,,2013-03-03 01:52:00,
2013-03-02 20:01:00,31.0,22.0,30.19,SSE,161,4.0,8.0,70,0.00,,,0.00,,2013-03-03 02:01:00,
2013-03-02 20:11:00,31.0,22.0,30.19,SSE,161,4.0,8.0,70,0.00,,,0.00,,2013-03-03 02:11:00,
2013-03-02 20:21:00,31.0,22.0,30.19,ESE,116,3.0,9.0,69,0.00,,,0.00,,2013-03-03 02:21:00,
2013-03-02 20:32:00,31.0,22.0,30.19,SSE,148,4.0,8.0,69,0.00,,,0.00,,2013-03-03 02:32:00,
2013-03-02 20:41:00,31.0,22.0,30.19,SSE,148,4.0,8.0,69,0.00,,,0.00,,2013-03-03 02:41:00,
2013-03-02 20:52:00,31.0,22.0,30.19,SE,138,2.0,8.0,68,0.00,,,0.00,,2013-03-03 02:52:00,
2013-03-02 21:01:00,31.0,22.0,30.18,SE,129,2.0,6.0,68,0.00,,,0.00,,2013-03-03 03:01:00,
2013-03-02 21:11:00,31.0,22.0,30.18,SE,129,2.0,6.0,68,0.00,,,0.00,,2013-03-03 03:11:00,
2013-03-02 21:21:00,30.0,21.0,30.18,SSE,161,4.0,6.0,68,0.00,,,0.00,,2013-03-03 03:21:00,
2013-03-02 21:31:00,30.0,21.0,30.18,SE,142,5.0,10.0,69,0.00,,,0.00,,2013-03-03 03:31:00,
2013-03-02 21:41:00,30.0,21.0,30.18,SE,142,5.0,10.0,69,0.00,,,0.00,,2013-03-03 03:41:00,
2013-03-02 21:52:00,30.0,21.0,30.18,SE,142,5.0,10.0,69,0.00,,,0.00,,2013-03-03 03:52:00,
2013-03-02 22:01:00,30.0,22.0,30.16,SE,145,6.0,10.0,71,0.00,,,0.00,,2013-03-03 04:01:00,
2013-03-02 22:11:00,30.0,22.0,30.16,SE,145,6.0,10.0,71,0.00,,,0.00,,2013-03-03 04:11:00,
2013-03-02 22:21:00,30.0,22.0,30.16,ESE,121,4.0,9.0,72,0.00,,,0.00,,2013-03-03 04:21:00,
2013-03-02 22:32:00,30.0,22.0,30.16,SE,137,3.0,8.0,72,0.00,,,0.00,,2013-03-03 04:32:00,
2013-03-02 22:42:00,30.0,22.0,30.16,SE,137,3.0,8.0,72,0.00,,,0.00,,2013-03-03 04:42:00,
2013-03-02 22:52:00,30.0,22.0,30.16,SE,137,3.0,8.0,72,0.00,,,0.00,,2013-03-03 04:52:00,
2013-03-02 23:02:00,29.0,21.0,30.16,SE,128,3.0,7.0,73,0.00,,,0.00,,2013-03-03 05:02:00,
2013-03-02 23:11:00,29.0,21.0,30.16,SE,128,3.0,7.0,73,0.00,,,0.00,,2013-03-03 05:11:00,
2013-03-02 23:22:00,29.0,22.0,30.16,SSE,150,3.0,8.0,74,0.00,,,0.00,,2013-03-03 05:22:00,
2013-03-02 23:32:00,29.0,22.0,30.15,SE,126,5.0,8.0,75,0.00,,,0.00,,2013-03-03 05:32:00,
2013-03-02 23:42:00,29.0,22.0,30.15,SE,126,5.0,8.0,75,0.00,,,0.00,,2013-03-03 05:42:00,
2013-03-02 23:52:00,29.0,22.0,30.15,ESE,102,4.0,7.0,75,0.00,,,0.00,,2013-03-03 05:52:00,